sensor_id;sensor_type;location;lat;lon;timestamp;P1;durP1;ratioP1;P2;durP2;ratioP2
51566;SDS011;37657;53.182;5.638;2023-08-17T00:01:41;4.80;;;3.40;;
51566;SDS011;37657;53.182;5.638;2023-08-17T00:04:07;8.88;;;4.30;;
51566;SDS011;37657;53.182;5.638;2023-08-17T00:06:32;17.67;;;5.97;;
51566;SDS011;37657;53.182;5.638;2023-08-17T00:08:58;7.70;;;3.88;;
51566;SDS011;37657;53.182;5.638;2023-08-17T00:11:24;8.70;;;4.65;;
51566;SDS011;37657;53.182;5.638;2023-08-17T00:13:49;6.47;;;3.65;;
51566;SDS011;37657;53.182;5.638;2023-08-17T00:16:15;6.30;;;3.58;;
51566;SDS011;37657;53.182;5.638;2023-08-17T00:18:41;4.60;;;4.00;;
51566;SDS011;37657;53.182;5.638;2023-08-17T00:21:07;4.68;;;2.67;;
51566;SDS011;37657;53.182;5.638;2023-08-17T00:23:33;8.38;;;3.78;;
51566;SDS011;37657;53.182;5.638;2023-08-17T00:25:58;10.40;;;3.13;;
51566;SDS011;37657;53.182;5.638;2023-08-17T00:28:24;8.90;;;3.33;;
51566;SDS011;37657;53.182;5.638;2023-08-17T00:30:50;6.80;;;3.83;;
51566;SDS011;37657;53.182;5.638;2023-08-17T00:33:16;11.68;;;3.70;;
51566;SDS011;37657;53.182;5.638;2023-08-17T00:35:42;6.05;;;3.60;;
51566;SDS011;37657;53.182;5.638;2023-08-17T00:38:07;12.13;;;3.22;;
51566;SDS011;37657;53.182;5.638;2023-08-17T00:40:33;5.22;;;3.78;;
51566;SDS011;37657;53.182;5.638;2023-08-17T00:42:59;7.72;;;4.03;;
51566;SDS011;37657;53.182;5.638;2023-08-17T00:45:25;7.00;;;4.22;;
51566;SDS011;37657;53.182;5.638;2023-08-17T00:47:53;4.85;;;2.75;;
51566;SDS011;37657;53.182;5.638;2023-08-17T00:50:21;5.32;;;3.85;;
51566;SDS011;37657;53.182;5.638;2023-08-17T00:52:48;6.53;;;3.53;;
51566;SDS011;37657;53.182;5.638;2023-08-17T00:55:14;11.32;;;4.05;;
51566;SDS011;37657;53.182;5.638;2023-08-17T00:57:39;7.97;;;3.13;;
51566;SDS011;37657;53.182;5.638;2023-08-17T01:00:06;6.10;;;3.13;;
51566;SDS011;37657;53.182;5.638;2023-08-17T01:02:34;4.43;;;2.72;;
51566;SDS011;37657;53.182;5.638;2023-08-17T01:05:00;6.85;;;3.25;;
51566;SDS011;37657;53.182;5.638;2023-08-17T01:07:26;10.43;;;4.93;;
51566;SDS011;37657;53.182;5.638;2023-08-17T01:09:51;6.18;;;3.00;;
51566;SDS011;37657;53.182;5.638;2023-08-17T01:12:19;8.65;;;4.30;;
51566;SDS011;37657;53.182;5.638;2023-08-17T01:17:45;5.05;;;4.07;;
51566;SDS011;37657;53.182;5.638;2023-08-17T01:20:19;4.80;;;2.88;;
51566;SDS011;37657;53.182;5.638;2023-08-17T01:22:46;10.35;;;3.15;;
51566;SDS011;37657;53.182;5.638;2023-08-17T01:25:15;4.57;;;2.90;;
51566;SDS011;37657;53.182;5.638;2023-08-17T01:27:41;8.82;;;4.00;;
51566;SDS011;37657;53.182;5.638;2023-08-17T01:30:11;5.22;;;4.07;;
51566;SDS011;37657;53.182;5.638;2023-08-17T01:32:51;6.60;;;2.75;;
51566;SDS011;37657;53.182;5.638;2023-08-17T01:35:34;6.80;;;3.50;;
51566;SDS011;37657;53.182;5.638;2023-08-17T01:38:04;4.95;;;3.67;;
51566;SDS011;37657;53.182;5.638;2023-08-17T01:40:34;5.07;;;3.03;;
51566;SDS011;37657;53.182;5.638;2023-08-17T01:43:01;5.65;;;3.53;;
51566;SDS011;37657;53.182;5.638;2023-08-17T01:45:27;5.80;;;3.40;;
51566;SDS011;37657;53.182;5.638;2023-08-17T01:47:54;6.28;;;3.83;;
51566;SDS011;37657;53.182;5.638;2023-08-17T01:50:20;7.93;;;4.00;;
51566;SDS011;37657;53.182;5.638;2023-08-17T01:52:46;6.10;;;3.65;;
51566;SDS011;37657;53.182;5.638;2023-08-17T01:55:12;5.22;;;3.28;;
51566;SDS011;37657;53.182;5.638;2023-08-17T01:57:37;7.85;;;4.20;;
51566;SDS011;37657;53.182;5.638;2023-08-17T02:00:06;6.03;;;3.80;;
51566;SDS011;37657;53.182;5.638;2023-08-17T02:02:35;11.07;;;4.30;;
51566;SDS011;37657;53.182;5.638;2023-08-17T02:05:01;5.80;;;3.38;;
51566;SDS011;37657;53.182;5.638;2023-08-17T02:07:27;3.95;;;3.10;;
51566;SDS011;37657;53.182;5.638;2023-08-17T02:09:53;7.65;;;4.60;;
51566;SDS011;37657;53.182;5.638;2023-08-17T02:12:19;7.20;;;4.35;;
51566;SDS011;37657;53.182;5.638;2023-08-17T02:14:44;5.68;;;4.22;;
51566;SDS011;37657;53.182;5.638;2023-08-17T02:17:10;12.45;;;5.85;;
51566;SDS011;37657;53.182;5.638;2023-08-17T02:19:36;8.68;;;5.22;;
51566;SDS011;37657;53.182;5.638;2023-08-17T02:22:01;10.90;;;4.55;;
51566;SDS011;37657;53.182;5.638;2023-08-17T02:24:27;6.78;;;4.93;;
51566;SDS011;37657;53.182;5.638;2023-08-17T02:26:53;7.35;;;5.03;;
51566;SDS011;37657;53.182;5.638;2023-08-17T02:29:18;8.35;;;4.90;;
51566;SDS011;37657;53.182;5.638;2023-08-17T02:31:44;10.10;;;5.25;;
51566;SDS011;37657;53.182;5.638;2023-08-17T02:34:09;4.90;;;4.35;;
51566;SDS011;37657;53.182;5.638;2023-08-17T02:36:35;6.80;;;4.57;;
51566;SDS011;37657;53.182;5.638;2023-08-17T02:39:00;6.43;;;4.47;;
51566;SDS011;37657;53.182;5.638;2023-08-17T02:41:28;6.90;;;4.28;;
51566;SDS011;37657;53.182;5.638;2023-08-17T02:43:55;6.05;;;4.70;;
51566;SDS011;37657;53.182;5.638;2023-08-17T02:46:21;7.60;;;4.32;;
51566;SDS011;37657;53.182;5.638;2023-08-17T02:48:46;7.18;;;5.00;;
51566;SDS011;37657;53.182;5.638;2023-08-17T02:51:13;6.10;;;4.82;;
51566;SDS011;37657;53.182;5.638;2023-08-17T02:53:38;6.45;;;4.72;;
51566;SDS011;37657;53.182;5.638;2023-08-17T02:56:04;6.18;;;4.50;;
51566;SDS011;37657;53.182;5.638;2023-08-17T02:58:29;7.75;;;4.22;;
51566;SDS011;37657;53.182;5.638;2023-08-17T03:00:55;10.07;;;4.82;;
51566;SDS011;37657;53.182;5.638;2023-08-17T03:03:21;6.43;;;4.80;;
51566;SDS011;37657;53.182;5.638;2023-08-17T03:05:46;6.82;;;3.63;;
51566;SDS011;37657;53.182;5.638;2023-08-17T03:08:12;6.75;;;4.55;;
51566;SDS011;37657;53.182;5.638;2023-08-17T03:10:37;7.25;;;4.72;;
51566;SDS011;37657;53.182;5.638;2023-08-17T03:13:03;6.90;;;4.32;;
51566;SDS011;37657;53.182;5.638;2023-08-17T03:15:29;10.55;;;4.45;;
51566;SDS011;37657;53.182;5.638;2023-08-17T03:17:54;7.03;;;4.60;;
51566;SDS011;37657;53.182;5.638;2023-08-17T03:20:20;7.70;;;4.85;;
51566;SDS011;37657;53.182;5.638;2023-08-17T03:22:46;8.18;;;4.50;;
51566;SDS011;37657;53.182;5.638;2023-08-17T03:25:11;9.85;;;5.05;;
51566;SDS011;37657;53.182;5.638;2023-08-17T03:27:37;10.05;;;4.90;;
51566;SDS011;37657;53.182;5.638;2023-08-17T03:30:03;7.40;;;3.72;;
51566;SDS011;37657;53.182;5.638;2023-08-17T03:32:29;6.18;;;4.13;;
51566;SDS011;37657;53.182;5.638;2023-08-17T03:34:55;9.55;;;4.72;;
51566;SDS011;37657;53.182;5.638;2023-08-17T03:37:21;6.43;;;4.30;;
51566;SDS011;37657;53.182;5.638;2023-08-17T03:39:46;8.23;;;5.35;;
51566;SDS011;37657;53.182;5.638;2023-08-17T03:42:12;5.78;;;3.55;;
51566;SDS011;37657;53.182;5.638;2023-08-17T03:44:37;7.40;;;3.97;;
51566;SDS011;37657;53.182;5.638;2023-08-17T03:47:03;8.43;;;3.78;;
51566;SDS011;37657;53.182;5.638;2023-08-17T03:49:28;8.15;;;4.07;;
51566;SDS011;37657;53.182;5.638;2023-08-17T03:51:54;7.78;;;4.85;;
51566;SDS011;37657;53.182;5.638;2023-08-17T03:54:20;7.85;;;4.97;;
51566;SDS011;37657;53.182;5.638;2023-08-17T03:56:45;4.32;;;3.33;;
51566;SDS011;37657;53.182;5.638;2023-08-17T03:59:11;7.43;;;4.13;;
51566;SDS011;37657;53.182;5.638;2023-08-17T04:01:36;10.43;;;4.55;;
51566;SDS011;37657;53.182;5.638;2023-08-17T04:04:02;8.90;;;5.82;;
51566;SDS011;37657;53.182;5.638;2023-08-17T04:06:27;5.18;;;3.83;;
51566;SDS011;37657;53.182;5.638;2023-08-17T04:08:53;5.68;;;3.97;;
51566;SDS011;37657;53.182;5.638;2023-08-17T04:11:19;6.03;;;4.25;;
51566;SDS011;37657;53.182;5.638;2023-08-17T04:13:44;8.23;;;5.03;;
51566;SDS011;37657;53.182;5.638;2023-08-17T04:16:10;6.43;;;4.47;;
51566;SDS011;37657;53.182;5.638;2023-08-17T04:18:35;7.95;;;4.90;;
51566;SDS011;37657;53.182;5.638;2023-08-17T04:21:01;6.25;;;5.35;;
51566;SDS011;37657;53.182;5.638;2023-08-17T04:23:27;7.78;;;5.18;;
51566;SDS011;37657;53.182;5.638;2023-08-17T04:25:53;6.90;;;4.80;;
51566;SDS011;37657;53.182;5.638;2023-08-17T04:28:19;7.20;;;4.80;;
51566;SDS011;37657;53.182;5.638;2023-08-17T04:30:44;7.15;;;4.45;;
51566;SDS011;37657;53.182;5.638;2023-08-17T04:33:10;6.35;;;4.65;;
51566;SDS011;37657;53.182;5.638;2023-08-17T04:35:35;8.23;;;4.70;;
51566;SDS011;37657;53.182;5.638;2023-08-17T04:38:01;6.18;;;4.05;;
51566;SDS011;37657;53.182;5.638;2023-08-17T04:40:27;7.30;;;4.95;;
51566;SDS011;37657;53.182;5.638;2023-08-17T04:42:53;12.05;;;4.88;;
51566;SDS011;37657;53.182;5.638;2023-08-17T04:45:18;6.72;;;4.70;;
51566;SDS011;37657;53.182;5.638;2023-08-17T04:47:44;8.50;;;5.15;;
51566;SDS011;37657;53.182;5.638;2023-08-17T04:50:12;5.63;;;3.85;;
51566;SDS011;37657;53.182;5.638;2023-08-17T04:52:41;4.20;;;3.15;;
51566;SDS011;37657;53.182;5.638;2023-08-17T04:55:08;8.88;;;4.78;;
51566;SDS011;37657;53.182;5.638;2023-08-17T04:57:33;8.15;;;4.40;;
51566;SDS011;37657;53.182;5.638;2023-08-17T04:59:59;7.82;;;4.70;;
51566;SDS011;37657;53.182;5.638;2023-08-17T05:02:25;7.90;;;4.22;;
51566;SDS011;37657;53.182;5.638;2023-08-17T05:04:50;8.98;;;4.72;;
51566;SDS011;37657;53.182;5.638;2023-08-17T05:07:16;6.72;;;4.40;;
51566;SDS011;37657;53.182;5.638;2023-08-17T05:09:41;5.78;;;4.22;;
51566;SDS011;37657;53.182;5.638;2023-08-17T05:12:07;6.90;;;4.47;;
51566;SDS011;37657;53.182;5.638;2023-08-17T05:14:33;8.52;;;5.30;;
51566;SDS011;37657;53.182;5.638;2023-08-17T05:16:58;5.40;;;3.72;;
51566;SDS011;37657;53.182;5.638;2023-08-17T05:19:24;7.05;;;4.05;;
51566;SDS011;37657;53.182;5.638;2023-08-17T05:21:50;5.13;;;3.80;;
51566;SDS011;37657;53.182;5.638;2023-08-17T05:24:16;7.10;;;4.25;;
51566;SDS011;37657;53.182;5.638;2023-08-17T05:26:43;6.05;;;3.60;;
51566;SDS011;37657;53.182;5.638;2023-08-17T05:29:08;5.13;;;2.95;;
51566;SDS011;37657;53.182;5.638;2023-08-17T05:31:34;8.65;;;3.47;;
51566;SDS011;37657;53.182;5.638;2023-08-17T05:33:59;7.95;;;3.67;;
51566;SDS011;37657;53.182;5.638;2023-08-17T05:36:25;7.35;;;4.05;;
51566;SDS011;37657;53.182;5.638;2023-08-17T05:38:51;6.13;;;3.95;;
51566;SDS011;37657;53.182;5.638;2023-08-17T05:41:16;5.22;;;3.05;;
51566;SDS011;37657;53.182;5.638;2023-08-17T05:43:42;5.40;;;3.22;;
51566;SDS011;37657;53.182;5.638;2023-08-17T05:46:08;6.25;;;3.25;;
51566;SDS011;37657;53.182;5.638;2023-08-17T05:48:34;8.05;;;3.35;;
51566;SDS011;37657;53.182;5.638;2023-08-17T05:50:59;4.50;;;3.22;;
51566;SDS011;37657;53.182;5.638;2023-08-17T05:53:25;4.75;;;3.38;;
51566;SDS011;37657;53.182;5.638;2023-08-17T05:55:51;6.05;;;3.10;;
51566;SDS011;37657;53.182;5.638;2023-08-17T05:58:16;9.13;;;3.25;;
51566;SDS011;37657;53.182;5.638;2023-08-17T06:00:42;6.50;;;2.50;;
51566;SDS011;37657;53.182;5.638;2023-08-17T06:03:07;5.47;;;2.80;;
51566;SDS011;37657;53.182;5.638;2023-08-17T06:05:34;5.07;;;2.72;;
51566;SDS011;37657;53.182;5.638;2023-08-17T06:07:59;4.15;;;2.65;;
51566;SDS011;37657;53.182;5.638;2023-08-17T06:10:25;8.40;;;3.33;;
51566;SDS011;37657;53.182;5.638;2023-08-17T06:12:54;4.50;;;2.47;;
51566;SDS011;37657;53.182;5.638;2023-08-17T06:15:21;6.60;;;3.05;;
51566;SDS011;37657;53.182;5.638;2023-08-17T06:17:47;4.65;;;3.20;;
51566;SDS011;37657;53.182;5.638;2023-08-17T06:20:15;4.97;;;3.38;;
51566;SDS011;37657;53.182;5.638;2023-08-17T06:22:41;4.28;;;2.65;;
51566;SDS011;37657;53.182;5.638;2023-08-17T06:25:07;5.47;;;2.10;;
51566;SDS011;37657;53.182;5.638;2023-08-17T06:27:33;3.38;;;2.15;;
51566;SDS011;37657;53.182;5.638;2023-08-17T06:29:59;3.92;;;2.42;;
51566;SDS011;37657;53.182;5.638;2023-08-17T06:32:25;3.70;;;2.08;;
51566;SDS011;37657;53.182;5.638;2023-08-17T06:34:51;3.80;;;2.50;;
51566;SDS011;37657;53.182;5.638;2023-08-17T06:37:19;5.40;;;2.30;;
51566;SDS011;37657;53.182;5.638;2023-08-17T06:39:44;4.75;;;2.45;;
51566;SDS011;37657;53.182;5.638;2023-08-17T06:42:10;4.70;;;2.20;;
51566;SDS011;37657;53.182;5.638;2023-08-17T06:44:36;7.28;;;2.67;;
51566;SDS011;37657;53.182;5.638;2023-08-17T06:47:01;9.32;;;2.50;;
51566;SDS011;37657;53.182;5.638;2023-08-17T06:49:27;3.83;;;2.10;;
51566;SDS011;37657;53.182;5.638;2023-08-17T06:51:53;3.05;;;2.17;;
51566;SDS011;37657;53.182;5.638;2023-08-17T06:54:18;6.95;;;2.45;;
51566;SDS011;37657;53.182;5.638;2023-08-17T06:56:44;4.78;;;2.25;;
51566;SDS011;37657;53.182;5.638;2023-08-17T06:59:09;4.28;;;1.70;;
51566;SDS011;37657;53.182;5.638;2023-08-17T07:01:35;4.88;;;2.17;;
51566;SDS011;37657;53.182;5.638;2023-08-17T07:04:01;8.05;;;2.08;;
51566;SDS011;37657;53.182;5.638;2023-08-17T07:06:27;5.15;;;1.95;;
51566;SDS011;37657;53.182;5.638;2023-08-17T07:08:54;4.25;;;2.00;;
51566;SDS011;37657;53.182;5.638;2023-08-17T07:11:19;3.00;;;1.98;;
51566;SDS011;37657;53.182;5.638;2023-08-17T07:13:45;5.20;;;2.33;;
51566;SDS011;37657;53.182;5.638;2023-08-17T07:16:10;3.45;;;1.98;;
51566;SDS011;37657;53.182;5.638;2023-08-17T07:18:36;4.50;;;2.10;;
51566;SDS011;37657;53.182;5.638;2023-08-17T07:21:02;13.43;;;2.50;;
51566;SDS011;37657;53.182;5.638;2023-08-17T07:23:27;4.55;;;2.10;;
51566;SDS011;37657;53.182;5.638;2023-08-17T07:25:53;6.22;;;2.08;;
51566;SDS011;37657;53.182;5.638;2023-08-17T07:28:19;2.35;;;1.60;;
51566;SDS011;37657;53.182;5.638;2023-08-17T07:30:44;2.70;;;1.50;;
51566;SDS011;37657;53.182;5.638;2023-08-17T07:33:10;2.63;;;1.73;;
51566;SDS011;37657;53.182;5.638;2023-08-17T07:35:35;3.50;;;1.70;;
51566;SDS011;37657;53.182;5.638;2023-08-17T07:38:01;6.90;;;2.08;;
51566;SDS011;37657;53.182;5.638;2023-08-17T07:40:27;4.38;;;1.70;;
51566;SDS011;37657;53.182;5.638;2023-08-17T07:42:52;4.13;;;1.67;;
51566;SDS011;37657;53.182;5.638;2023-08-17T07:45:18;4.53;;;1.73;;
51566;SDS011;37657;53.182;5.638;2023-08-17T07:47:44;3.40;;;1.42;;
51566;SDS011;37657;53.182;5.638;2023-08-17T07:50:10;3.00;;;1.63;;
51566;SDS011;37657;53.182;5.638;2023-08-17T07:52:35;1.95;;;1.27;;
51566;SDS011;37657;53.182;5.638;2023-08-17T07:55:01;1.88;;;1.48;;
51566;SDS011;37657;53.182;5.638;2023-08-17T07:57:26;3.80;;;1.85;;
51566;SDS011;37657;53.182;5.638;2023-08-17T07:59:52;3.72;;;2.33;;
51566;SDS011;37657;53.182;5.638;2023-08-17T08:02:19;3.58;;;1.63;;
51566;SDS011;37657;53.182;5.638;2023-08-17T08:04:44;7.05;;;1.88;;
51566;SDS011;37657;53.182;5.638;2023-08-17T08:07:10;3.40;;;1.98;;
51566;SDS011;37657;53.182;5.638;2023-08-17T08:09:36;2.92;;;1.77;;
51566;SDS011;37657;53.182;5.638;2023-08-17T08:12:02;4.40;;;2.10;;
51566;SDS011;37657;53.182;5.638;2023-08-17T08:14:27;3.42;;;1.85;;
51566;SDS011;37657;53.182;5.638;2023-08-17T08:16:54;2.75;;;2.15;;
51566;SDS011;37657;53.182;5.638;2023-08-17T08:19:19;5.60;;;2.30;;
51566;SDS011;37657;53.182;5.638;2023-08-17T08:21:45;8.32;;;1.98;;
51566;SDS011;37657;53.182;5.638;2023-08-17T08:24:11;3.28;;;1.73;;
51566;SDS011;37657;53.182;5.638;2023-08-17T08:26:36;3.55;;;1.52;;
51566;SDS011;37657;53.182;5.638;2023-08-17T08:29:02;3.20;;;1.63;;
51566;SDS011;37657;53.182;5.638;2023-08-17T08:31:28;5.32;;;1.50;;
51566;SDS011;37657;53.182;5.638;2023-08-17T08:33:53;3.65;;;1.50;;
51566;SDS011;37657;53.182;5.638;2023-08-17T08:36:19;3.03;;;1.60;;
51566;SDS011;37657;53.182;5.638;2023-08-17T08:38:45;3.83;;;1.63;;
51566;SDS011;37657;53.182;5.638;2023-08-17T08:41:11;3.00;;;1.58;;
51566;SDS011;37657;53.182;5.638;2023-08-17T08:43:37;3.42;;;1.70;;
51566;SDS011;37657;53.182;5.638;2023-08-17T08:46:04;3.15;;;1.77;;
51566;SDS011;37657;53.182;5.638;2023-08-17T08:48:29;2.65;;;1.48;;
51566;SDS011;37657;53.182;5.638;2023-08-17T08:50:56;3.90;;;1.92;;
51566;SDS011;37657;53.182;5.638;2023-08-17T08:53:31;4.05;;;1.63;;
51566;SDS011;37657;53.182;5.638;2023-08-17T08:56:02;11.57;;;1.73;;
51566;SDS011;37657;53.182;5.638;2023-08-17T08:58:29;5.05;;;1.77;;
51566;SDS011;37657;53.182;5.638;2023-08-17T09:00:57;3.15;;;1.40;;
51566;SDS011;37657;53.182;5.638;2023-08-17T09:03:26;4.25;;;2.05;;
51566;SDS011;37657;53.182;5.638;2023-08-17T09:05:52;2.67;;;2.10;;
51566;SDS011;37657;53.182;5.638;2023-08-17T09:08:20;3.38;;;1.77;;
51566;SDS011;37657;53.182;5.638;2023-08-17T09:10:50;2.95;;;1.65;;
51566;SDS011;37657;53.182;5.638;2023-08-17T09:13:16;3.38;;;2.17;;
51566;SDS011;37657;53.182;5.638;2023-08-17T09:15:42;5.65;;;2.25;;
51566;SDS011;37657;53.182;5.638;2023-08-17T09:18:07;3.22;;;1.85;;
51566;SDS011;37657;53.182;5.638;2023-08-17T09:20:36;2.58;;;1.45;;
51566;SDS011;37657;53.182;5.638;2023-08-17T09:23:04;3.92;;;2.25;;
51566;SDS011;37657;53.182;5.638;2023-08-17T09:25:34;3.83;;;2.05;;
51566;SDS011;37657;53.182;5.638;2023-08-17T09:28:02;2.35;;;1.55;;
51566;SDS011;37657;53.182;5.638;2023-08-17T09:30:43;4.03;;;2.15;;
51566;SDS011;37657;53.182;5.638;2023-08-17T09:33:16;2.33;;;1.50;;
51566;SDS011;37657;53.182;5.638;2023-08-17T09:35:42;3.40;;;1.63;;
51566;SDS011;37657;53.182;5.638;2023-08-17T09:38:07;4.93;;;1.58;;
51566;SDS011;37657;53.182;5.638;2023-08-17T09:40:33;2.80;;;1.60;;
51566;SDS011;37657;53.182;5.638;2023-08-17T09:43:05;4.03;;;1.67;;
51566;SDS011;37657;53.182;5.638;2023-08-17T09:45:30;3.28;;;1.80;;
51566;SDS011;37657;53.182;5.638;2023-08-17T09:48:05;2.15;;;1.40;;
51566;SDS011;37657;53.182;5.638;2023-08-17T09:50:36;2.33;;;1.23;;
51566;SDS011;37657;53.182;5.638;2023-08-17T09:53:04;3.90;;;1.42;;
51566;SDS011;37657;53.182;5.638;2023-08-17T09:55:30;2.17;;;1.02;;
51566;SDS011;37657;53.182;5.638;2023-08-17T09:57:59;4.13;;;1.60;;
51566;SDS011;37657;53.182;5.638;2023-08-17T10:00:25;3.03;;;1.67;;
51566;SDS011;37657;53.182;5.638;2023-08-17T10:02:52;2.15;;;1.38;;
51566;SDS011;37657;53.182;5.638;2023-08-17T10:05:19;2.58;;;1.50;;
51566;SDS011;37657;53.182;5.638;2023-08-17T10:07:47;2.28;;;1.42;;
51566;SDS011;37657;53.182;5.638;2023-08-17T10:10:18;2.13;;;1.27;;
51566;SDS011;37657;53.182;5.638;2023-08-17T10:15:37;3.17;;;1.33;;
51566;SDS011;37657;53.182;5.638;2023-08-17T10:20:42;3.07;;;1.80;;
51566;SDS011;37657;53.182;5.638;2023-08-17T10:23:19;2.55;;;1.75;;
51566;SDS011;37657;53.182;5.638;2023-08-17T10:25:49;1.83;;;1.60;;
51566;SDS011;37657;53.182;5.638;2023-08-17T10:28:15;4.25;;;2.00;;
51566;SDS011;37657;53.182;5.638;2023-08-17T10:30:42;6.85;;;2.25;;
51566;SDS011;37657;53.182;5.638;2023-08-17T10:33:08;2.40;;;1.45;;
51566;SDS011;37657;53.182;5.638;2023-08-17T10:35:35;7.80;;;1.67;;
51566;SDS011;37657;53.182;5.638;2023-08-17T10:38:02;4.60;;;2.35;;
51566;SDS011;37657;53.182;5.638;2023-08-17T10:40:34;2.92;;;1.52;;
51566;SDS011;37657;53.182;5.638;2023-08-17T10:43:01;3.58;;;2.17;;
51566;SDS011;37657;53.182;5.638;2023-08-17T10:45:34;3.92;;;2.25;;
51566;SDS011;37657;53.182;5.638;2023-08-17T10:50:34;3.55;;;2.10;;
51566;SDS011;37657;53.182;5.638;2023-08-17T10:53:13;5.25;;;2.03;;
51566;SDS011;37657;53.182;5.638;2023-08-17T10:55:44;3.28;;;1.60;;
51566;SDS011;37657;53.182;5.638;2023-08-17T10:58:12;6.40;;;2.53;;
51566;SDS011;37657;53.182;5.638;2023-08-17T11:00:38;4.00;;;2.35;;
51566;SDS011;37657;53.182;5.638;2023-08-17T11:03:07;7.82;;;2.10;;
51566;SDS011;37657;53.182;5.638;2023-08-17T11:05:37;7.45;;;2.15;;
51566;SDS011;37657;53.182;5.638;2023-08-17T11:08:22;3.90;;;2.38;;
51566;SDS011;37657;53.182;5.638;2023-08-17T11:10:59;3.20;;;1.88;;
51566;SDS011;37657;53.182;5.638;2023-08-17T11:13:31;4.25;;;2.17;;
51566;SDS011;37657;53.182;5.638;2023-08-17T11:16:02;4.00;;;2.17;;
51566;SDS011;37657;53.182;5.638;2023-08-17T11:18:29;3.72;;;1.65;;
51566;SDS011;37657;53.182;5.638;2023-08-17T11:20:55;4.22;;;2.45;;
51566;SDS011;37657;53.182;5.638;2023-08-17T11:23:22;8.38;;;3.42;;
51566;SDS011;37657;53.182;5.638;2023-08-17T11:25:48;4.68;;;2.15;;
51566;SDS011;37657;53.182;5.638;2023-08-17T11:28:16;2.58;;;1.63;;
51566;SDS011;37657;53.182;5.638;2023-08-17T11:30:42;9.23;;;2.20;;
51566;SDS011;37657;53.182;5.638;2023-08-17T11:33:08;5.32;;;1.50;;
51566;SDS011;37657;53.182;5.638;2023-08-17T11:35:34;3.45;;;1.70;;
51566;SDS011;37657;53.182;5.638;2023-08-17T11:38:00;6.13;;;3.00;;
51566;SDS011;37657;53.182;5.638;2023-08-17T11:40:26;12.27;;;3.30;;
51566;SDS011;37657;53.182;5.638;2023-08-17T11:42:52;10.05;;;2.50;;
51566;SDS011;37657;53.182;5.638;2023-08-17T11:45:18;6.32;;;2.20;;
51566;SDS011;37657;53.182;5.638;2023-08-17T11:47:46;4.60;;;2.55;;
51566;SDS011;37657;53.182;5.638;2023-08-17T11:50:12;4.38;;;2.50;;
51566;SDS011;37657;53.182;5.638;2023-08-17T11:52:38;4.05;;;1.98;;
51566;SDS011;37657;53.182;5.638;2023-08-17T11:55:04;5.68;;;2.75;;
51566;SDS011;37657;53.182;5.638;2023-08-17T11:57:31;4.03;;;2.20;;
51566;SDS011;37657;53.182;5.638;2023-08-17T11:59:58;4.57;;;2.72;;
51566;SDS011;37657;53.182;5.638;2023-08-17T12:02:25;5.80;;;2.08;;
51566;SDS011;37657;53.182;5.638;2023-08-17T12:04:51;5.28;;;3.03;;
51566;SDS011;37657;53.182;5.638;2023-08-17T12:07:18;5.28;;;2.83;;
51566;SDS011;37657;53.182;5.638;2023-08-17T12:09:45;6.72;;;3.08;;
51566;SDS011;37657;53.182;5.638;2023-08-17T12:12:11;8.52;;;2.90;;
51566;SDS011;37657;53.182;5.638;2023-08-17T12:14:37;4.47;;;2.42;;
51566;SDS011;37657;53.182;5.638;2023-08-17T12:17:06;5.93;;;2.97;;
51566;SDS011;37657;53.182;5.638;2023-08-17T12:19:32;5.25;;;2.60;;
51566;SDS011;37657;53.182;5.638;2023-08-17T12:21:57;6.47;;;3.10;;
51566;SDS011;37657;53.182;5.638;2023-08-17T12:24:23;4.47;;;2.83;;
51566;SDS011;37657;53.182;5.638;2023-08-17T12:26:49;4.32;;;2.42;;
51566;SDS011;37657;53.182;5.638;2023-08-17T12:29:18;3.50;;;2.17;;
51566;SDS011;37657;53.182;5.638;2023-08-17T12:31:44;3.35;;;2.40;;
51566;SDS011;37657;53.182;5.638;2023-08-17T12:34:09;5.53;;;2.65;;
51566;SDS011;37657;53.182;5.638;2023-08-17T12:36:35;4.90;;;2.38;;
51566;SDS011;37657;53.182;5.638;2023-08-17T12:39:02;5.13;;;3.25;;
51566;SDS011;37657;53.182;5.638;2023-08-17T12:41:29;4.78;;;3.00;;
51566;SDS011;37657;53.182;5.638;2023-08-17T12:43:54;4.18;;;2.15;;
51566;SDS011;37657;53.182;5.638;2023-08-17T12:46:23;6.03;;;2.75;;
51566;SDS011;37657;53.182;5.638;2023-08-17T12:48:49;4.18;;;2.50;;
51566;SDS011;37657;53.182;5.638;2023-08-17T12:51:14;7.22;;;2.88;;
51566;SDS011;37657;53.182;5.638;2023-08-17T12:53:40;9.88;;;3.03;;
51566;SDS011;37657;53.182;5.638;2023-08-17T12:56:06;4.88;;;2.97;;
51566;SDS011;37657;53.182;5.638;2023-08-17T12:58:32;3.63;;;2.67;;
51566;SDS011;37657;53.182;5.638;2023-08-17T13:00:57;4.45;;;2.60;;
51566;SDS011;37657;53.182;5.638;2023-08-17T13:03:23;4.40;;;2.95;;
51566;SDS011;37657;53.182;5.638;2023-08-17T13:05:49;6.28;;;3.85;;
51566;SDS011;37657;53.182;5.638;2023-08-17T13:08:14;5.07;;;3.20;;
51566;SDS011;37657;53.182;5.638;2023-08-17T13:10:40;10.93;;;3.63;;
51566;SDS011;37657;53.182;5.638;2023-08-17T13:13:06;5.65;;;2.70;;
51566;SDS011;37657;53.182;5.638;2023-08-17T13:15:32;4.45;;;3.00;;
51566;SDS011;37657;53.182;5.638;2023-08-17T13:17:58;6.40;;;2.80;;
51566;SDS011;37657;53.182;5.638;2023-08-17T13:20:24;7.45;;;3.05;;
51566;SDS011;37657;53.182;5.638;2023-08-17T13:22:50;10.98;;;3.47;;
51566;SDS011;37657;53.182;5.638;2023-08-17T13:25:15;8.00;;;3.92;;
51566;SDS011;37657;53.182;5.638;2023-08-17T13:27:41;11.15;;;4.15;;
51566;SDS011;37657;53.182;5.638;2023-08-17T13:30:07;8.90;;;3.17;;
51566;SDS011;37657;53.182;5.638;2023-08-17T13:32:33;5.57;;;2.75;;
51566;SDS011;37657;53.182;5.638;2023-08-17T13:34:59;9.80;;;3.22;;
51566;SDS011;37657;53.182;5.638;2023-08-17T13:37:26;3.75;;;2.83;;
51566;SDS011;37657;53.182;5.638;2023-08-17T13:39:53;5.30;;;3.10;;
51566;SDS011;37657;53.182;5.638;2023-08-17T13:42:18;6.30;;;2.58;;
51566;SDS011;37657;53.182;5.638;2023-08-17T13:44:44;3.72;;;2.65;;
51566;SDS011;37657;53.182;5.638;2023-08-17T13:47:10;5.55;;;2.30;;
51566;SDS011;37657;53.182;5.638;2023-08-17T13:49:36;4.80;;;2.80;;
51566;SDS011;37657;53.182;5.638;2023-08-17T13:52:02;4.78;;;2.33;;
51566;SDS011;37657;53.182;5.638;2023-08-17T13:54:28;5.30;;;2.10;;
51566;SDS011;37657;53.182;5.638;2023-08-17T13:56:53;6.72;;;3.58;;
51566;SDS011;37657;53.182;5.638;2023-08-17T13:59:19;6.88;;;2.58;;
51566;SDS011;37657;53.182;5.638;2023-08-17T14:01:45;6.95;;;3.38;;
51566;SDS011;37657;53.182;5.638;2023-08-17T14:04:10;5.82;;;3.53;;
51566;SDS011;37657;53.182;5.638;2023-08-17T14:06:39;5.85;;;2.95;;
51566;SDS011;37657;53.182;5.638;2023-08-17T14:09:06;6.28;;;3.03;;
51566;SDS011;37657;53.182;5.638;2023-08-17T14:11:32;4.22;;;2.58;;
51566;SDS011;37657;53.182;5.638;2023-08-17T14:13:57;6.00;;;2.92;;
51566;SDS011;37657;53.182;5.638;2023-08-17T14:16:23;3.65;;;2.20;;
51566;SDS011;37657;53.182;5.638;2023-08-17T14:18:49;4.43;;;3.30;;
51566;SDS011;37657;53.182;5.638;2023-08-17T14:21:15;6.45;;;3.03;;
51566;SDS011;37657;53.182;5.638;2023-08-17T14:23:41;5.80;;;3.30;;
51566;SDS011;37657;53.182;5.638;2023-08-17T14:26:06;5.35;;;2.75;;
51566;SDS011;37657;53.182;5.638;2023-08-17T14:28:32;6.78;;;3.35;;
51566;SDS011;37657;53.182;5.638;2023-08-17T14:30:58;4.72;;;3.10;;
51566;SDS011;37657;53.182;5.638;2023-08-17T14:33:23;4.10;;;2.88;;
51566;SDS011;37657;53.182;5.638;2023-08-17T14:35:49;6.38;;;2.88;;
51566;SDS011;37657;53.182;5.638;2023-08-17T14:38:15;3.72;;;2.53;;
51566;SDS011;37657;53.182;5.638;2023-08-17T14:40:45;6.05;;;3.60;;
51566;SDS011;37657;53.182;5.638;2023-08-17T14:43:12;6.13;;;2.65;;
51566;SDS011;37657;53.182;5.638;2023-08-17T14:45:39;4.10;;;2.35;;
51566;SDS011;37657;53.182;5.638;2023-08-17T14:48:07;3.90;;;2.05;;
51566;SDS011;37657;53.182;5.638;2023-08-17T14:50:34;5.82;;;2.78;;
51566;SDS011;37657;53.182;5.638;2023-08-17T14:53:00;5.22;;;2.80;;
51566;SDS011;37657;53.182;5.638;2023-08-17T14:55:28;8.50;;;3.25;;